sensor_id;sensor_type;location;lat;lon;timestamp;P1;durP1;ratioP1;P2;durP2;ratioP2
22571;SDS011;11452;53.368;14.658;2023-07-29T00:03:54;1.00;;;1.00;;
22571;SDS011;11452;53.368;14.658;2023-07-29T00:09:00;0.90;;;0.90;;
22571;SDS011;11452;53.368;14.658;2023-07-29T00:14:06;1.20;;;1.10;;
22571;SDS011;11452;53.368;14.658;2023-07-29T00:19:12;1.67;;;0.97;;
22571;SDS011;11452;53.368;14.658;2023-07-29T00:24:19;1.23;;;1.13;;
22571;SDS011;11452;53.368;14.658;2023-07-29T00:29:24;1.73;;;1.20;;
22571;SDS011;11452;53.368;14.658;2023-07-29T00:34:30;1.10;;;1.00;;
22571;SDS011;11452;53.368;14.658;2023-07-29T00:39:36;1.97;;;1.17;;
22571;SDS011;11452;53.368;14.658;2023-07-29T00:44:44;1.40;;;1.30;;
22571;SDS011;11452;53.368;14.658;2023-07-29T00:49:50;1.20;;;1.10;;
22571;SDS011;11452;53.368;14.658;2023-07-29T00:54:56;1.30;;;1.20;;
22571;SDS011;11452;53.368;14.658;2023-07-29T01:00:03;1.27;;;1.17;;
22571;SDS011;11452;53.368;14.658;2023-07-29T01:05:11;1.20;;;1.20;;
22571;SDS011;11452;53.368;14.658;2023-07-29T01:10:22;1.17;;;1.10;;
22571;SDS011;11452;53.368;14.658;2023-07-29T01:21:03;1.47;;;1.37;;
22571;SDS011;11452;53.368;14.658;2023-07-29T01:26:09;1.47;;;1.20;;
22571;SDS011;11452;53.368;14.658;2023-07-29T01:31:27;1.73;;;1.63;;
22571;SDS011;11452;53.368;14.658;2023-07-29T01:36:35;1.17;;;1.17;;
22571;SDS011;11452;53.368;14.658;2023-07-29T01:41:44;1.47;;;1.37;;
22571;SDS011;11452;53.368;14.658;2023-07-29T01:46:51;1.60;;;1.50;;
22571;SDS011;11452;53.368;14.658;2023-07-29T01:51:57;1.83;;;1.43;;
22571;SDS011;11452;53.368;14.658;2023-07-29T01:57:03;1.10;;;1.10;;
22571;SDS011;11452;53.368;14.658;2023-07-29T02:02:09;1.60;;;1.50;;
22571;SDS011;11452;53.368;14.658;2023-07-29T02:07:14;2.37;;;1.63;;
22571;SDS011;11452;53.368;14.658;2023-07-29T02:12:20;1.40;;;1.30;;
22571;SDS011;11452;53.368;14.658;2023-07-29T02:17:25;1.80;;;1.47;;
22571;SDS011;11452;53.368;14.658;2023-07-29T02:22:31;1.50;;;1.40;;
22571;SDS011;11452;53.368;14.658;2023-07-29T02:27:37;2.07;;;1.87;;
22571;SDS011;11452;53.368;14.658;2023-07-29T02:32:43;1.37;;;1.30;;
22571;SDS011;11452;53.368;14.658;2023-07-29T02:37:49;1.60;;;1.50;;
22571;SDS011;11452;53.368;14.658;2023-07-29T02:42:56;2.00;;;1.80;;
22571;SDS011;11452;53.368;14.658;2023-07-29T02:48:02;1.60;;;1.50;;
22571;SDS011;11452;53.368;14.658;2023-07-29T02:53:08;1.80;;;1.70;;
22571;SDS011;11452;53.368;14.658;2023-07-29T02:58:14;1.60;;;1.50;;
22571;SDS011;11452;53.368;14.658;2023-07-29T03:03:20;2.10;;;2.00;;
22571;SDS011;11452;53.368;14.658;2023-07-29T03:08:26;1.90;;;1.80;;
22571;SDS011;11452;53.368;14.658;2023-07-29T03:13:32;1.90;;;1.77;;
22571;SDS011;11452;53.368;14.658;2023-07-29T03:18:39;2.13;;;1.87;;
22571;SDS011;11452;53.368;14.658;2023-07-29T03:23:46;2.43;;;2.27;;
22571;SDS011;11452;53.368;14.658;2023-07-29T03:28:52;2.40;;;2.30;;
22571;SDS011;11452;53.368;14.658;2023-07-29T03:33:57;2.93;;;2.73;;
22571;SDS011;11452;53.368;14.658;2023-07-29T03:39:03;2.33;;;2.20;;
22571;SDS011;11452;53.368;14.658;2023-07-29T03:44:09;2.67;;;2.47;;
22571;SDS011;11452;53.368;14.658;2023-07-29T03:49:15;2.33;;;2.10;;
22571;SDS011;11452;53.368;14.658;2023-07-29T03:54:21;2.43;;;2.23;;
22571;SDS011;11452;53.368;14.658;2023-07-29T03:59:27;2.10;;;2.00;;
22571;SDS011;11452;53.368;14.658;2023-07-29T04:04:33;1.90;;;1.80;;
22571;SDS011;11452;53.368;14.658;2023-07-29T04:09:39;1.83;;;1.73;;
22571;SDS011;11452;53.368;14.658;2023-07-29T04:14:47;2.90;;;2.70;;
22571;SDS011;11452;53.368;14.658;2023-07-29T04:19:53;2.87;;;2.67;;
22571;SDS011;11452;53.368;14.658;2023-07-29T04:25:00;3.17;;;2.97;;
22571;SDS011;11452;53.368;14.658;2023-07-29T04:30:08;3.50;;;3.10;;
22571;SDS011;11452;53.368;14.658;2023-07-29T04:35:14;2.90;;;2.70;;
22571;SDS011;11452;53.368;14.658;2023-07-29T04:40:20;3.60;;;3.30;;
22571;SDS011;11452;53.368;14.658;2023-07-29T04:45:28;3.23;;;2.93;;
22571;SDS011;11452;53.368;14.658;2023-07-29T04:50:35;3.63;;;3.33;;
22571;SDS011;11452;53.368;14.658;2023-07-29T04:55:42;3.77;;;3.23;;
22571;SDS011;11452;53.368;14.658;2023-07-29T05:00:47;3.33;;;3.13;;
22571;SDS011;11452;53.368;14.658;2023-07-29T05:05:54;3.10;;;2.90;;
22571;SDS011;11452;53.368;14.658;2023-07-29T05:11:01;2.50;;;2.40;;
22571;SDS011;11452;53.368;14.658;2023-07-29T05:16:07;3.67;;;3.33;;
22571;SDS011;11452;53.368;14.658;2023-07-29T05:21:13;3.97;;;3.57;;
22571;SDS011;11452;53.368;14.658;2023-07-29T05:26:19;3.80;;;3.50;;
22571;SDS011;11452;53.368;14.658;2023-07-29T05:31:24;3.67;;;3.30;;
22571;SDS011;11452;53.368;14.658;2023-07-29T05:36:31;3.70;;;3.40;;
22571;SDS011;11452;53.368;14.658;2023-07-29T05:41:38;3.40;;;3.20;;
22571;SDS011;11452;53.368;14.658;2023-07-29T05:46:44;3.40;;;3.20;;
22571;SDS011;11452;53.368;14.658;2023-07-29T05:51:50;3.73;;;3.53;;
22571;SDS011;11452;53.368;14.658;2023-07-29T05:56:56;3.67;;;3.37;;
22571;SDS011;11452;53.368;14.658;2023-07-29T06:02:02;3.20;;;3.00;;
22571;SDS011;11452;53.368;14.658;2023-07-29T06:07:09;3.67;;;3.37;;
22571;SDS011;11452;53.368;14.658;2023-07-29T06:12:15;3.43;;;3.13;;
22571;SDS011;11452;53.368;14.658;2023-07-29T06:17:21;3.33;;;3.10;;
22571;SDS011;11452;53.368;14.658;2023-07-29T06:22:28;3.30;;;3.10;;
22571;SDS011;11452;53.368;14.658;2023-07-29T06:27:37;2.70;;;2.50;;
22571;SDS011;11452;53.368;14.658;2023-07-29T06:32:42;3.60;;;3.30;;
22571;SDS011;11452;53.368;14.658;2023-07-29T06:37:48;4.27;;;3.87;;
22571;SDS011;11452;53.368;14.658;2023-07-29T06:42:54;3.70;;;3.40;;
22571;SDS011;11452;53.368;14.658;2023-07-29T06:48:00;3.80;;;3.50;;
22571;SDS011;11452;53.368;14.658;2023-07-29T06:53:06;3.10;;;2.90;;
22571;SDS011;11452;53.368;14.658;2023-07-29T06:58:13;2.83;;;2.63;;
22571;SDS011;11452;53.368;14.658;2023-07-29T07:03:18;3.00;;;2.80;;
22571;SDS011;11452;53.368;14.658;2023-07-29T07:08:24;2.77;;;2.57;;
22571;SDS011;11452;53.368;14.658;2023-07-29T07:13:30;2.90;;;2.70;;
22571;SDS011;11452;53.368;14.658;2023-07-29T07:18:36;2.60;;;2.40;;
22571;SDS011;11452;53.368;14.658;2023-07-29T07:23:42;2.37;;;2.17;;
22571;SDS011;11452;53.368;14.658;2023-07-29T07:28:48;2.40;;;2.10;;
22571;SDS011;11452;53.368;14.658;2023-07-29T07:33:55;2.00;;;1.90;;
22571;SDS011;11452;53.368;14.658;2023-07-29T07:39:01;2.53;;;2.30;;
22571;SDS011;11452;53.368;14.658;2023-07-29T07:44:07;2.83;;;1.93;;
22571;SDS011;11452;53.368;14.658;2023-07-29T07:49:13;2.30;;;2.10;;
22571;SDS011;11452;53.368;14.658;2023-07-29T07:54:19;2.43;;;2.23;;
22571;SDS011;11452;53.368;14.658;2023-07-29T07:59:25;2.10;;;2.00;;
22571;SDS011;11452;53.368;14.658;2023-07-29T08:04:31;2.03;;;1.90;;
22571;SDS011;11452;53.368;14.658;2023-07-29T08:09:36;2.37;;;2.20;;
22571;SDS011;11452;53.368;14.658;2023-07-29T08:14:42;1.97;;;1.87;;
22571;SDS011;11452;53.368;14.658;2023-07-29T08:19:48;2.13;;;2.03;;
22571;SDS011;11452;53.368;14.658;2023-07-29T08:24:54;2.27;;;2.13;;
22571;SDS011;11452;53.368;14.658;2023-07-29T08:29:59;2.00;;;1.90;;
22571;SDS011;11452;53.368;14.658;2023-07-29T08:35:07;2.13;;;1.90;;
22571;SDS011;11452;53.368;14.658;2023-07-29T08:40:13;2.07;;;1.87;;
22571;SDS011;11452;53.368;14.658;2023-07-29T08:45:19;1.80;;;1.60;;
22571;SDS011;11452;53.368;14.658;2023-07-29T08:50:26;1.90;;;1.70;;
22571;SDS011;11452;53.368;14.658;2023-07-29T08:55:33;1.70;;;1.60;;
22571;SDS011;11452;53.368;14.658;2023-07-29T09:00:40;1.77;;;1.67;;
22571;SDS011;11452;53.368;14.658;2023-07-29T09:05:46;1.67;;;1.57;;
22571;SDS011;11452;53.368;14.658;2023-07-29T09:10:53;1.73;;;1.63;;
22571;SDS011;11452;53.368;14.658;2023-07-29T09:16:00;1.97;;;1.87;;
22571;SDS011;11452;53.368;14.658;2023-07-29T09:21:07;1.80;;;1.70;;
22571;SDS011;11452;53.368;14.658;2023-07-29T09:26:12;2.23;;;2.03;;
22571;SDS011;11452;53.368;14.658;2023-07-29T09:31:21;1.97;;;1.87;;
22571;SDS011;11452;53.368;14.658;2023-07-29T09:36:32;2.23;;;2.03;;
22571;SDS011;11452;53.368;14.658;2023-07-29T09:41:40;2.50;;;2.30;;
22571;SDS011;11452;53.368;14.658;2023-07-29T09:46:49;2.50;;;2.30;;
22571;SDS011;11452;53.368;14.658;2023-07-29T09:51:55;2.47;;;1.90;;
22571;SDS011;11452;53.368;14.658;2023-07-29T09:57:03;2.57;;;2.37;;
22571;SDS011;11452;53.368;14.658;2023-07-29T10:02:15;2.93;;;2.73;;
22571;SDS011;11452;53.368;14.658;2023-07-29T10:07:25;2.60;;;2.40;;
22571;SDS011;11452;53.368;14.658;2023-07-29T10:12:31;3.57;;;3.27;;
22571;SDS011;11452;53.368;14.658;2023-07-29T10:17:38;2.73;;;2.53;;
22571;SDS011;11452;53.368;14.658;2023-07-29T10:22:45;3.08;;;2.87;;
22571;SDS011;11452;53.368;14.658;2023-07-29T10:27:53;4.13;;;3.40;;
22571;SDS011;11452;53.368;14.658;2023-07-29T10:33:10;3.67;;;3.37;;
22571;SDS011;11452;53.368;14.658;2023-07-29T10:38:16;3.93;;;3.53;;
22571;SDS011;11452;53.368;14.658;2023-07-29T10:43:26;3.17;;;2.97;;
22571;SDS011;11452;53.368;14.658;2023-07-29T10:53:43;3.13;;;2.90;;
22571;SDS011;11452;53.368;14.658;2023-07-29T10:58:48;3.10;;;2.90;;
22571;SDS011;11452;53.368;14.658;2023-07-29T11:04:01;3.40;;;3.10;;
22571;SDS011;11452;53.368;14.658;2023-07-29T11:09:38;3.20;;;3.00;;
22571;SDS011;11452;53.368;14.658;2023-07-29T11:14:33;3.50;;;3.20;;
22571;SDS011;11452;53.368;14.658;2023-07-29T11:19:40;4.87;;;3.37;;
22571;SDS011;11452;53.368;14.658;2023-07-29T11:24:46;4.10;;;3.70;;
22571;SDS011;11452;53.368;14.658;2023-07-29T11:29:59;4.70;;;4.30;;
22571;SDS011;11452;53.368;14.658;2023-07-29T11:35:10;4.77;;;4.37;;
22571;SDS011;11452;53.368;14.658;2023-07-29T11:40:20;4.13;;;3.73;;
22571;SDS011;11452;53.368;14.658;2023-07-29T11:45:26;3.70;;;3.40;;
22571;SDS011;11452;53.368;14.658;2023-07-29T11:50:35;3.80;;;3.50;;
22571;SDS011;11452;53.368;14.658;2023-07-29T11:55:41;5.27;;;3.30;;
22571;SDS011;11452;53.368;14.658;2023-07-29T12:00:47;4.13;;;3.50;;
22571;SDS011;11452;53.368;14.658;2023-07-29T12:05:53;4.10;;;3.80;;
22571;SDS011;11452;53.368;14.658;2023-07-29T12:10:59;3.30;;;3.00;;
22571;SDS011;11452;53.368;14.658;2023-07-29T12:16:06;3.67;;;3.37;;
22571;SDS011;11452;53.368;14.658;2023-07-29T12:21:13;3.60;;;3.30;;
22571;SDS011;11452;53.368;14.658;2023-07-29T12:26:19;3.07;;;2.87;;
22571;SDS011;11452;53.368;14.658;2023-07-29T12:31:31;2.83;;;2.63;;
22571;SDS011;11452;53.368;14.658;2023-07-29T12:36:44;3.00;;;2.50;;
22571;SDS011;11452;53.368;14.658;2023-07-29T12:41:51;3.10;;;2.90;;
22571;SDS011;11452;53.368;14.658;2023-07-29T12:47:00;3.33;;;2.47;;
22571;SDS011;11452;53.368;14.658;2023-07-29T12:52:06;2.50;;;2.30;;
22571;SDS011;11452;53.368;14.658;2023-07-29T12:57:12;3.00;;;2.50;;
22571;SDS011;11452;53.368;14.658;2023-07-29T13:02:18;3.80;;;2.20;;
22571;SDS011;11452;53.368;14.658;2023-07-29T13:07:24;2.87;;;2.30;;
22571;SDS011;11452;53.368;14.658;2023-07-29T13:12:29;3.57;;;2.57;;
22571;SDS011;11452;53.368;14.658;2023-07-29T13:17:35;3.63;;;3.03;;
22571;SDS011;11452;53.368;14.658;2023-07-29T13:22:41;3.60;;;2.80;;
22571;SDS011;11452;53.368;14.658;2023-07-29T13:27:47;3.10;;;2.80;;
22571;SDS011;11452;53.368;14.658;2023-07-29T13:32:53;2.67;;;2.47;;
22571;SDS011;11452;53.368;14.658;2023-07-29T13:37:59;3.13;;;2.70;;
22571;SDS011;11452;53.368;14.658;2023-07-29T13:43:06;2.53;;;2.33;;
22571;SDS011;11452;53.368;14.658;2023-07-29T13:48:12;2.53;;;2.20;;
22571;SDS011;11452;53.368;14.658;2023-07-29T13:53:17;2.40;;;2.00;;
22571;SDS011;11452;53.368;14.658;2023-07-29T13:58:23;2.50;;;2.10;;
22571;SDS011;11452;53.368;14.658;2023-07-29T14:03:29;2.27;;;2.17;;
22571;SDS011;11452;53.368;14.658;2023-07-29T14:08:35;2.20;;;2.07;;
22571;SDS011;11452;53.368;14.658;2023-07-29T14:13:42;2.47;;;2.27;;
22571;SDS011;11452;53.368;14.658;2023-07-29T14:18:48;2.17;;;2.00;;
22571;SDS011;11452;53.368;14.658;2023-07-29T14:23:54;2.00;;;1.80;;
22571;SDS011;11452;53.368;14.658;2023-07-29T14:28:59;1.87;;;1.47;;
22571;SDS011;11452;53.368;14.658;2023-07-29T14:34:05;2.03;;;1.90;;
22571;SDS011;11452;53.368;14.658;2023-07-29T14:39:19;2.30;;;2.10;;
22571;SDS011;11452;53.368;14.658;2023-07-29T14:44:19;1.93;;;1.83;;
22571;SDS011;11452;53.368;14.658;2023-07-29T14:49:25;1.80;;;1.70;;
22571;SDS011;11452;53.368;14.658;2023-07-29T14:54:30;1.57;;;1.33;;
22571;SDS011;11452;53.368;14.658;2023-07-29T14:59:36;1.57;;;1.47;;
22571;SDS011;11452;53.368;14.658;2023-07-29T15:04:42;1.70;;;1.60;;
22571;SDS011;11452;53.368;14.658;2023-07-29T15:09:48;1.50;;;1.40;;
22571;SDS011;11452;53.368;14.658;2023-07-29T15:14:54;1.80;;;1.70;;
22571;SDS011;11452;53.368;14.658;2023-07-29T15:19:59;1.50;;;1.40;;
22571;SDS011;11452;53.368;14.658;2023-07-29T15:25:08;1.63;;;1.40;;
22571;SDS011;11452;53.368;14.658;2023-07-29T15:30:14;1.60;;;1.50;;
22571;SDS011;11452;53.368;14.658;2023-07-29T15:35:21;2.53;;;1.77;;
22571;SDS011;11452;53.368;14.658;2023-07-29T15:40:27;1.80;;;1.70;;
22571;SDS011;11452;53.368;14.658;2023-07-29T15:45:32;2.43;;;1.83;;
22571;SDS011;11452;53.368;14.658;2023-07-29T15:50:38;2.23;;;2.03;;
22571;SDS011;11452;53.368;14.658;2023-07-29T15:55:44;2.17;;;1.90;;
22571;SDS011;11452;53.368;14.658;2023-07-29T16:00:49;1.60;;;1.50;;
22571;SDS011;11452;53.368;14.658;2023-07-29T16:05:55;1.23;;;1.17;;
22571;SDS011;11452;53.368;14.658;2023-07-29T16:11:01;1.20;;;1.10;;
22571;SDS011;11452;53.368;14.658;2023-07-29T16:16:06;1.40;;;1.30;;
22571;SDS011;11452;53.368;14.658;2023-07-29T16:21:12;1.80;;;1.70;;
22571;SDS011;11452;53.368;14.658;2023-07-29T16:26:19;1.60;;;1.50;;
22571;SDS011;11452;53.368;14.658;2023-07-29T16:31:25;2.00;;;1.90;;
22571;SDS011;11452;53.368;14.658;2023-07-29T16:36:31;1.67;;;1.57;;
22571;SDS011;11452;53.368;14.658;2023-07-29T16:41:37;2.03;;;1.53;;
22571;SDS011;11452;53.368;14.658;2023-07-29T16:46:44;1.90;;;1.70;;
22571;SDS011;11452;53.368;14.658;2023-07-29T16:51:50;1.80;;;1.70;;
22571;SDS011;11452;53.368;14.658;2023-07-29T16:56:56;1.97;;;1.53;;
22571;SDS011;11452;53.368;14.658;2023-07-29T17:02:21;2.10;;;1.60;;
22571;SDS011;11452;53.368;14.658;2023-07-29T17:07:29;2.13;;;1.97;;
22571;SDS011;11452;53.368;14.658;2023-07-29T17:12:35;1.47;;;1.37;;
22571;SDS011;11452;53.368;14.658;2023-07-29T17:17:41;1.70;;;1.60;;
22571;SDS011;11452;53.368;14.658;2023-07-29T17:22:46;1.63;;;1.53;;
22571;SDS011;11452;53.368;14.658;2023-07-29T17:27:52;2.07;;;1.70;;
22571;SDS011;11452;53.368;14.658;2023-07-29T17:32:59;1.90;;;1.80;;
22571;SDS011;11452;53.368;14.658;2023-07-29T17:38:05;1.70;;;1.60;;
22571;SDS011;11452;53.368;14.658;2023-07-29T17:43:14;1.53;;;1.43;;
22571;SDS011;11452;53.368;14.658;2023-07-29T17:48:19;2.03;;;1.60;;
22571;SDS011;11452;53.368;14.658;2023-07-29T17:53:26;1.87;;;1.43;;
22571;SDS011;11452;53.368;14.658;2023-07-29T17:58:31;1.77;;;1.67;;
22571;SDS011;11452;53.368;14.658;2023-07-29T18:03:37;1.87;;;1.60;;
22571;SDS011;11452;53.368;14.658;2023-07-29T18:08:43;1.50;;;1.40;;
22571;SDS011;11452;53.368;14.658;2023-07-29T18:13:49;1.77;;;1.67;;
22571;SDS011;11452;53.368;14.658;2023-07-29T18:18:55;1.80;;;1.70;;
22571;SDS011;11452;53.368;14.658;2023-07-29T18:24:01;1.77;;;1.60;;
22571;SDS011;11452;53.368;14.658;2023-07-29T18:29:10;2.53;;;1.50;;
22571;SDS011;11452;53.368;14.658;2023-07-29T18:34:16;1.70;;;1.60;;
22571;SDS011;11452;53.368;14.658;2023-07-29T18:39:25;2.30;;;2.10;;
22571;SDS011;11452;53.368;14.658;2023-07-29T18:44:32;1.60;;;1.50;;
22571;SDS011;11452;53.368;14.658;2023-07-29T18:49:39;1.83;;;1.73;;
22571;SDS011;11452;53.368;14.658;2023-07-29T18:54:44;2.00;;;1.80;;
22571;SDS011;11452;53.368;14.658;2023-07-29T18:59:50;1.40;;;1.30;;
22571;SDS011;11452;53.368;14.658;2023-07-29T19:04:57;2.00;;;1.90;;
22571;SDS011;11452;53.368;14.658;2023-07-29T19:10:03;3.03;;;2.63;;
22571;SDS011;11452;53.368;14.658;2023-07-29T19:15:09;2.20;;;2.10;;
22571;SDS011;11452;53.368;14.658;2023-07-29T19:20:15;1.83;;;1.73;;
22571;SDS011;11452;53.368;14.658;2023-07-29T19:25:21;2.10;;;1.97;;
22571;SDS011;11452;53.368;14.658;2023-07-29T19:30:27;1.77;;;1.67;;
22571;SDS011;11452;53.368;14.658;2023-07-29T19:35:33;2.00;;;1.90;;
22571;SDS011;11452;53.368;14.658;2023-07-29T19:40:41;2.03;;;1.83;;
22571;SDS011;11452;53.368;14.658;2023-07-29T19:45:49;1.93;;;1.83;;
22571;SDS011;11452;53.368;14.658;2023-07-29T19:50:57;2.77;;;2.50;;
22571;SDS011;11452;53.368;14.658;2023-07-29T19:56:02;2.40;;;2.07;;
22571;SDS011;11452;53.368;14.658;2023-07-29T20:01:08;2.13;;;2.03;;
22571;SDS011;11452;53.368;14.658;2023-07-29T20:06:16;2.30;;;2.10;;
22571;SDS011;11452;53.368;14.658;2023-07-29T20:11:22;2.87;;;2.57;;
22571;SDS011;11452;53.368;14.658;2023-07-29T20:16:28;2.93;;;2.67;;
22571;SDS011;11452;53.368;14.658;2023-07-29T20:21:34;3.40;;;3.10;;
22571;SDS011;11452;53.368;14.658;2023-07-29T20:26:40;3.80;;;3.50;;
22571;SDS011;11452;53.368;14.658;2023-07-29T20:31:46;3.73;;;3.43;;
22571;SDS011;11452;53.368;14.658;2023-07-29T20:36:52;3.80;;;3.50;;
22571;SDS011;11452;53.368;14.658;2023-07-29T20:41:57;3.93;;;3.70;;
22571;SDS011;11452;53.368;14.658;2023-07-29T20:47:04;4.60;;;4.30;;
22571;SDS011;11452;53.368;14.658;2023-07-29T20:52:10;4.60;;;4.23;;
22571;SDS011;11452;53.368;14.658;2023-07-29T20:57:16;4.50;;;4.17;;
22571;SDS011;11452;53.368;14.658;2023-07-29T21:02:22;4.13;;;3.83;;
22571;SDS011;11452;53.368;14.658;2023-07-29T21:07:28;4.30;;;4.00;;
22571;SDS011;11452;53.368;14.658;2023-07-29T21:12:34;4.37;;;4.07;;
22571;SDS011;11452;53.368;14.658;2023-07-29T21:17:39;4.83;;;4.43;;
22571;SDS011;11452;53.368;14.658;2023-07-29T21:22:45;4.50;;;4.20;;
22571;SDS011;11452;53.368;14.658;2023-07-29T21:27:51;3.97;;;3.57;;
22571;SDS011;11452;53.368;14.658;2023-07-29T21:32:57;4.27;;;3.87;;
22571;SDS011;11452;53.368;14.658;2023-07-29T21:38:03;4.13;;;3.83;;
22571;SDS011;11452;53.368;14.658;2023-07-29T21:43:10;4.00;;;3.70;;
22571;SDS011;11452;53.368;14.658;2023-07-29T21:48:16;4.10;;;3.70;;
22571;SDS011;11452;53.368;14.658;2023-07-29T21:53:22;4.33;;;4.03;;
22571;SDS011;11452;53.368;14.658;2023-07-29T21:58:28;4.60;;;4.27;;
22571;SDS011;11452;53.368;14.658;2023-07-29T22:03:33;4.60;;;4.30;;
22571;SDS011;11452;53.368;14.658;2023-07-29T22:08:39;4.60;;;4.23;;
22571;SDS011;11452;53.368;14.658;2023-07-29T22:13:45;4.90;;;4.40;;
22571;SDS011;11452;53.368;14.658;2023-07-29T22:18:51;5.40;;;4.90;;
22571;SDS011;11452;53.368;14.658;2023-07-29T22:23:57;5.17;;;4.67;;
22571;SDS011;11452;53.368;14.658;2023-07-29T22:29:03;5.10;;;4.70;;
22571;SDS011;11452;53.368;14.658;2023-07-29T22:34:09;5.90;;;5.50;;
22571;SDS011;11452;53.368;14.658;2023-07-29T22:39:15;5.20;;;4.80;;
22571;SDS011;11452;53.368;14.658;2023-07-29T22:44:20;6.03;;;5.53;;
22571;SDS011;11452;53.368;14.658;2023-07-29T22:49:27;6.07;;;5.40;;
22571;SDS011;11452;53.368;14.658;2023-07-29T22:54:33;6.33;;;5.83;;
22571;SDS011;11452;53.368;14.658;2023-07-29T22:59:39;5.93;;;5.43;;
22571;SDS011;11452;53.368;14.658;2023-07-29T23:04:44;5.20;;;4.80;;
22571;SDS011;11452;53.368;14.658;2023-07-29T23:09:50;6.10;;;5.50;;
22571;SDS011;11452;53.368;14.658;2023-07-29T23:14:56;5.00;;;4.60;;
22571;SDS011;11452;53.368;14.658;2023-07-29T23:20:02;5.33;;;4.87;;
22571;SDS011;11452;53.368;14.658;2023-07-29T23:25:08;5.80;;;5.30;;
22571;SDS011;11452;53.368;14.658;2023-07-29T23:30:14;6.07;;;5.57;;
22571;SDS011;11452;53.368;14.658;2023-07-29T23:35:20;6.20;;;5.70;;
22571;SDS011;11452;53.368;14.658;2023-07-29T23:40:26;5.23;;;4.83;;
22571;SDS011;11452;53.368;14.658;2023-07-29T23:45:32;5.33;;;4.90;;
22571;SDS011;11452;53.368;14.658;2023-07-29T23:50:38;5.47;;;5.07;;
22571;SDS011;11452;53.368;14.658;2023-07-29T23:55:44;6.13;;;5.57;;
